Time;durP1;ratioP1;P1;durP2;ratioP2;P2;SDS_P1;SDS_P2;PMS_P1;PMS_P2;Temp;Humidity;BMP_temperature;BMP_pressure;BME280_temperature;BME280_humidity;BME280_pressure;Samples;Min_cycle;Max_cycle;Signal;HPM_P1;HPM_P2
2023/03/15 00:02:00;;;;;;;3.90;1.60;;;3.20;99.90;;;;;;5052786;28;20311;-82
2023/03/15 00:04:27;;;;;;;7.37;1.60;;;3.10;99.90;;;;;;5052691;28;20197;-81
2023/03/15 00:06:52;;;;;;;4.73;1.60;;;3.10;99.90;;;;;;5053137;28;20216;-81
2023/03/15 00:09:18;;;;;;;4.63;1.47;;;3.10;99.90;;;;;;5052848;28;20262;-83
2023/03/15 00:11:44;;;;;;;4.97;1.33;;;3.10;99.90;;;;;;5052565;28;20192;-81
2023/03/15 00:14:10;;;;;;;2.97;1.20;;;3.10;99.90;;;;;;5034975;28;20173;-81
2023/03/15 00:16:35;;;;;;;5.27;1.60;;;3.00;99.90;;;;;;5052388;28;20670;-81
2023/03/15 00:19:01;;;;;;;3.87;1.33;;;3.00;99.90;;;;;;5034715;28;20216;-81
2023/03/15 00:21:30;;;;;;;8.43;1.90;;;3.00;99.90;;;;;;5034514;28;20579;-82
2023/03/15 00:23:56;;;;;;;4.37;1.30;;;3.10;99.90;;;;;;5034683;28;20184;-81
2023/03/15 00:26:22;;;;;;;2.40;1.33;;;3.00;99.90;;;;;;5052931;28;20263;-81
2023/03/15 00:28:47;;;;;;;4.43;1.47;;;3.10;99.90;;;;;;5034483;28;20631;-81
2023/03/15 00:31:24;;;;;;;4.10;1.50;;;3.10;99.90;;;;;;5052162;28;20537;-81
2023/03/15 00:33:54;;;;;;;3.87;1.37;;;3.00;99.90;;;;;;5034421;28;20199;-82
2023/03/15 00:36:24;;;;;;;3.40;1.40;;;2.90;99.90;;;;;;5052364;28;20251;-82
2023/03/15 00:38:52;;;;;;;6.90;1.50;;;2.90;99.90;;;;;;5034556;28;20180;-82
2023/03/15 00:41:19;;;;;;;3.53;1.40;;;2.90;99.90;;;;;;5052604;28;20176;-82
2023/03/15 00:43:45;;;;;;;2.10;1.20;;;3.00;99.90;;;;;;5052466;28;20173;-81
2023/03/15 00:46:11;;;;;;;6.00;1.43;;;2.80;99.90;;;;;;5034697;28;20227;-81
2023/03/15 00:48:37;;;;;;;2.23;1.20;;;2.70;99.90;;;;;;5034253;28;20655;-82
2023/03/15 00:51:08;;;;;;;3.77;1.20;;;2.60;99.90;;;;;;5034721;28;20180;-82
2023/03/15 00:53:35;;;;;;;3.13;1.40;;;2.50;99.90;;;;;;5052630;28;20207;-83
2023/03/15 00:56:06;;;;;;;3.17;1.20;;;2.40;99.90;;;;;;5034576;28;20204;-82
2023/03/15 00:58:32;;;;;;;3.63;1.50;;;2.30;99.90;;;;;;5034534;28;20184;-81
2023/03/15 01:00:57;;;;;;;4.30;1.50;;;2.20;99.90;;;;;;5034403;28;20170;-82
2023/03/15 01:03:23;;;;;;;7.40;1.60;;;2.10;99.90;;;;;;5034478;28;20260;-82
2023/03/15 01:05:48;;;;;;;3.47;1.40;;;2.00;99.90;;;;;;5034934;28;20647;-81
2023/03/15 01:08:14;;;;;;;3.17;1.10;;;2.00;99.90;;;;;;5034861;28;20203;-82
2023/03/15 01:10:39;;;;;;;6.83;1.60;;;1.80;99.90;;;;;;5034422;28;20228;-81
2023/03/15 01:13:06;;;;;;;4.53;1.77;;;1.80;99.90;;;;;;5034788;28;20175;-81
2023/03/15 01:15:31;;;;;;;3.67;1.30;;;1.70;99.90;;;;;;5037930;28;20259;-81
2023/03/15 01:17:57;;;;;;;3.93;1.47;;;1.70;99.90;;;;;;5038620;28;20172;-83
2023/03/15 01:20:22;;;;;;;5.33;1.50;;;1.70;99.90;;;;;;5038351;28;20242;-82
2023/03/15 01:22:48;;;;;;;3.87;1.60;;;1.80;99.90;;;;;;5038667;28;20184;-82
2023/03/15 01:25:14;;;;;;;3.30;1.40;;;1.70;99.90;;;;;;5038664;28;20671;-82
2023/03/15 01:27:39;;;;;;;4.17;1.43;;;1.70;99.90;;;;;;5056660;28;20177;-82
2023/03/15 01:30:06;;;;;;;3.43;1.37;;;1.60;99.90;;;;;;5038202;28;20208;-81
2023/03/15 01:32:32;;;;;;;4.93;1.70;;;1.70;99.90;;;;;;5038113;28;20185;-83
2023/03/15 01:34:57;;;;;;;4.20;1.40;;;1.70;99.90;;;;;;5056089;28;20294;-82
2023/03/15 01:37:23;;;;;;;3.47;1.30;;;1.70;99.90;;;;;;5038444;28;20183;-82
2023/03/15 01:39:49;;;;;;;4.67;1.50;;;1.70;99.90;;;;;;5055972;28;20189;-81
2023/03/15 01:42:15;;;;;;;3.30;1.50;;;1.60;99.90;;;;;;5055215;28;20265;-81
2023/03/15 01:44:52;;;;;;;3.10;1.50;;;1.50;99.90;;;;;;5067999;28;20206;-81
2023/03/15 01:47:19;;;;;;;2.53;1.57;;;1.40;99.90;;;;;;5076232;28;20209;-82
2023/03/15 01:49:49;;;;;;;5.50;1.30;;;1.50;99.90;;;;;;5057767;28;20815;-82
2023/03/15 01:52:20;;;;;;;3.50;1.40;;;1.60;99.90;;;;;;5060278;28;20232;-82
2023/03/15 01:54:51;;;;;;;5.00;1.53;;;1.60;99.90;;;;;;5067295;28;20198;-82
2023/03/15 01:57:23;;;;;;;3.33;1.50;;;1.60;99.90;;;;;;5075968;28;20174;-81
2023/03/15 01:59:57;;;;;;;4.67;1.60;;;1.50;99.90;;;;;;5057911;28;20579;-82
2023/03/15 02:02:24;;;;;;;4.10;1.40;;;1.40;99.90;;;;;;5060081;28;20183;-82
2023/03/15 02:04:57;;;;;;;5.83;1.30;;;1.40;99.90;;;;;;5058412;28;20175;-82
2023/03/15 02:07:26;;;;;;;5.07;1.90;;;1.40;99.90;;;;;;5056513;28;20177;-83
2023/03/15 02:10:06;;;;;;;6.87;1.90;;;1.30;99.90;;;;;;5058237;28;20202;-82
2023/03/15 02:12:37;;;;;;;3.80;1.43;;;1.30;99.90;;;;;;5058771;28;20174;-82
2023/03/15 02:15:04;;;;;;;4.87;1.40;;;1.40;99.90;;;;;;5077145;28;20232;-82
2023/03/15 02:17:39;;;;;;;3.80;1.53;;;1.40;99.90;;;;;;5059023;28;20180;-82
2023/03/15 02:20:42;;;;;;;3.37;1.50;;;1.50;99.90;;;;;;5058359;28;20213;-82
2023/03/15 02:23:14;;;;;;;3.47;1.50;;;1.50;99.90;;;;;;5077604;28;20163;-82
2023/03/15 02:26:12;;;;;;;4.43;1.37;;;1.60;99.90;;;;;;5076087;28;20188;-82
2023/03/15 02:28:38;;;;;;;2.77;1.30;;;1.70;99.90;;;;;;5059776;28;20179;-82
2023/03/15 02:31:04;;;;;;;7.80;1.60;;;1.70;99.90;;;;;;5058686;28;20551;-82
2023/03/15 02:33:49;;;;;;;5.90;1.40;;;1.60;99.90;;;;;;5076585;28;20205;-82
2023/03/15 02:36:19;;;;;;;5.00;1.37;;;1.50;99.90;;;;;;5056518;28;20292;-82
2023/03/15 02:38:45;;;;;;;3.87;1.30;;;1.60;99.90;;;;;;5056340;28;20190;-82
2023/03/15 02:41:36;;;;;;;3.83;1.53;;;1.50;99.90;;;;;;5074407;28;20175;-81
2023/03/15 02:44:20;;;;;;;7.40;1.73;;;1.50;99.90;;;;;;5055670;28;20188;-81
2023/03/15 02:46:48;;;;;;;5.40;1.43;;;1.50;99.90;;;;;;5056325;28;20174;-81
2023/03/15 02:49:15;;;;;;;5.43;1.90;;;1.50;99.90;;;;;;5073929;28;20198;-82
2023/03/15 02:51:42;;;;;;;4.10;1.60;;;1.40;99.90;;;;;;5056334;28;20179;-82
2023/03/15 02:54:07;;;;;;;3.80;1.20;;;1.50;99.90;;;;;;5059764;28;20260;-81
2023/03/15 02:56:33;;;;;;;5.87;1.40;;;1.40;99.90;;;;;;5047835;28;20201;-81
2023/03/15 02:58:59;;;;;;;1.43;1.17;;;1.40;99.90;;;;;;5055984;28;20201;-81
2023/03/15 03:01:24;;;;;;;4.33;1.53;;;1.30;99.90;;;;;;5055766;28;20265;-81
2023/03/15 03:03:50;;;;;;;5.07;1.50;;;1.20;99.90;;;;;;5056174;28;20223;-81
2023/03/15 03:06:17;;;;;;;4.63;1.40;;;1.20;99.90;;;;;;5073890;28;20175;-81
2023/03/15 03:08:45;;;;;;;5.17;1.30;;;1.20;99.90;;;;;;5073673;28;20173;-81
2023/03/15 03:11:15;;;;;;;4.27;1.30;;;1.20;99.90;;;;;;5073786;28;20608;-81
2023/03/15 03:13:41;;;;;;;8.00;1.87;;;1.20;99.90;;;;;;5073786;28;20170;-81
2023/03/15 03:16:07;;;;;;;5.10;1.60;;;1.20;99.90;;;;;;5073820;28;20213;-81
2023/03/15 03:18:34;;;;;;;4.87;1.37;;;1.20;99.90;;;;;;5056098;28;20226;-81
2023/03/15 03:21:04;;;;;;;3.07;1.30;;;1.10;99.90;;;;;;5073367;28;20238;-82
2023/03/15 03:23:32;;;;;;;3.73;1.47;;;1.10;99.90;;;;;;5070806;28;20209;-81
2023/03/15 03:25:59;;;;;;;5.00;1.60;;;1.10;99.90;;;;;;5068366;28;20177;-80
2023/03/15 03:28:26;;;;;;;5.07;1.40;;;1.10;99.90;;;;;;5073569;28;20242;-82
2023/03/15 03:30:53;;;;;;;6.57;1.90;;;1.10;99.90;;;;;;5073477;28;20284;-82
2023/03/15 03:33:20;;;;;;;5.93;1.63;;;1.10;99.90;;;;;;5073645;28;20181;-81
2023/03/15 03:35:46;;;;;;;6.37;1.63;;;1.10;99.90;;;;;;5055695;28;20215;-82
2023/03/15 03:38:12;;;;;;;5.30;1.93;;;1.10;99.90;;;;;;5073016;28;20230;-81
2023/03/15 03:40:39;;;;;;;3.97;1.50;;;1.20;99.90;;;;;;5055361;28;20280;-81
2023/03/15 03:43:05;;;;;;;4.20;1.60;;;1.10;99.90;;;;;;5055448;28;20543;-81
2023/03/15 03:45:31;;;;;;;4.97;1.57;;;1.20;99.90;;;;;;5073484;28;20290;-81
2023/03/15 03:47:56;;;;;;;3.33;1.37;;;1.20;99.90;;;;;;5073484;28;20187;-81
2023/03/15 03:50:22;;;;;;;3.87;1.60;;;1.20;99.90;;;;;;5073491;28;20204;-81
2023/03/15 03:52:47;;;;;;;5.20;1.70;;;1.20;99.90;;;;;;5062376;28;20211;-81
2023/03/15 03:55:13;;;;;;;6.17;1.90;;;1.20;99.90;;;;;;5038327;28;20576;-81
2023/03/15 03:57:40;;;;;;;5.03;1.83;;;1.20;99.90;;;;;;5053603;28;20232;-82
2023/03/15 04:00:08;;;;;;;5.90;2.10;;;1.20;99.90;;;;;;5053177;28;20309;-82
2023/03/15 04:02:34;;;;;;;8.63;2.50;;;1.30;99.90;;;;;;5035769;28;20691;-81
2023/03/15 04:05:00;;;;;;;6.70;1.90;;;1.30;99.90;;;;;;5053658;28;20261;-80
2023/03/15 04:07:25;;;;;;;6.40;1.80;;;1.40;99.90;;;;;;5035586;28;20234;-81
2023/03/15 04:09:51;;;;;;;4.17;1.73;;;1.40;99.90;;;;;;5035223;28;20771;-81
2023/03/15 04:12:17;;;;;;;5.33;1.93;;;1.40;99.90;;;;;;5035564;28;20174;-81
2023/03/15 04:14:42;;;;;;;4.20;1.80;;;1.40;99.90;;;;;;5035391;28;20213;-82
2023/03/15 04:17:08;;;;;;;5.63;2.03;;;1.40;99.90;;;;;;5035629;28;20177;-81
2023/03/15 04:19:34;;;;;;;5.23;1.87;;;1.40;99.90;;;;;;5053252;28;20209;-82
2023/03/15 04:22:05;;;;;;;5.17;2.00;;;1.40;99.90;;;;;;5052884;28;20545;-81
2023/03/15 04:24:34;;;;;;;5.03;1.70;;;1.40;99.90;;;;;;5053421;28;20173;-82
2023/03/15 04:27:01;;;;;;;9.37;2.17;;;1.40;99.90;;;;;;5053600;28;20184;-81
2023/03/15 04:29:27;;;;;;;6.83;1.90;;;1.30;99.90;;;;;;5053170;28;20193;-81
2023/03/15 04:32:00;;;;;;;7.50;2.20;;;1.40;99.90;;;;;;5035773;28;20173;-81
2023/03/15 04:34:27;;;;;;;4.10;2.00;;;1.30;99.90;;;;;;5069798;28;20180;-82
2023/03/15 04:36:53;;;;;;;9.07;2.10;;;1.30;99.90;;;;;;5049928;28;20173;-82
2023/03/15 04:39:19;;;;;;;8.07;2.47;;;1.30;99.90;;;;;;5055663;28;20193;-82
2023/03/15 04:41:44;;;;;;;11.23;2.30;;;1.20;99.90;;;;;;5056112;28;20179;-81
2023/03/15 04:44:10;;;;;;;10.23;2.60;;;1.30;99.90;;;;;;5074055;28;20177;-81
2023/03/15 04:46:36;;;;;;;8.53;1.93;;;1.40;99.90;;;;;;5056211;28;20173;-82
2023/03/15 04:49:03;;;;;;;5.13;1.90;;;1.40;99.90;;;;;;5073450;28;20223;-82
2023/03/15 04:51:29;;;;;;;3.93;2.07;;;1.40;99.90;;;;;;5056382;28;20192;-82
2023/03/15 04:53:54;;;;;;;8.50;2.33;;;1.30;99.90;;;;;;5074444;28;20173;-81
2023/03/15 04:56:20;;;;;;;6.30;2.30;;;1.30;99.90;;;;;;5056778;28;20274;-81
2023/03/15 04:58:46;;;;;;;3.60;2.00;;;1.30;99.90;;;;;;5074688;28;20658;-81
2023/03/15 05:01:12;;;;;;;4.87;2.20;;;1.30;99.90;;;;;;5074475;28;20181;-82
2023/03/15 05:03:37;;;;;;;5.87;1.93;;;1.30;99.90;;;;;;5056520;28;20173;-80
2023/03/15 05:06:06;;;;;;;3.70;1.70;;;1.30;99.90;;;;;;5057127;28;20177;-82
2023/03/15 05:08:34;;;;;;;5.97;2.20;;;1.30;99.90;;;;;;5074703;28;20174;-80
2023/03/15 05:11:00;;;;;;;6.80;2.37;;;1.30;99.90;;;;;;5074458;28;20180;-82
2023/03/15 05:13:25;;;;;;;9.17;2.40;;;1.30;99.90;;;;;;5056668;28;20181;-81
2023/03/15 05:15:51;;;;;;;6.13;2.30;;;1.30;99.90;;;;;;5057033;28;20621;-82
2023/03/15 05:18:16;;;;;;;6.47;2.67;;;1.30;99.90;;;;;;5075299;28;20222;-82
2023/03/15 05:20:42;;;;;;;3.73;2.17;;;1.30;99.90;;;;;;5058152;28;20222;-82
2023/03/15 05:23:07;;;;;;;6.87;2.80;;;1.20;99.90;;;;;;5058092;28;20177;-81
2023/03/15 05:25:35;;;;;;;7.10;2.67;;;1.30;99.90;;;;;;5049215;28;20169;-81
2023/03/15 05:28:03;;;;;;;8.13;2.70;;;1.30;99.90;;;;;;5057775;28;20222;-82
2023/03/15 05:30:29;;;;;;;7.93;2.70;;;1.30;99.90;;;;;;5076463;28;20205;-82
2023/03/15 05:32:55;;;;;;;7.93;2.43;;;1.30;99.90;;;;;;5074069;28;20250;-81
2023/03/15 05:35:25;;;;;;;5.30;2.33;;;1.10;99.90;;;;;;5045187;28;20197;-81
2023/03/15 05:38:00;;;;;;;6.67;2.43;;;1.10;99.90;;;;;;5071646;28;20643;-81
2023/03/15 05:40:28;;;;;;;6.73;2.60;;;1.10;99.90;;;;;;5053739;28;20241;-81
2023/03/15 05:42:54;;;;;;;6.93;2.60;;;1.10;99.90;;;;;;5054379;28;20177;-85
2023/03/15 05:45:20;;;;;;;7.33;2.70;;;1.10;99.90;;;;;;5071776;28;20199;-82
2023/03/15 05:47:45;;;;;;;5.87;2.97;;;1.10;99.90;;;;;;5071971;28;20537;-82
2023/03/15 05:50:11;;;;;;;7.10;3.63;;;1.20;99.90;;;;;;5072261;28;20679;-81
2023/03/15 05:52:37;;;;;;;5.77;3.00;;;1.20;99.90;;;;;;5054466;28;20176;-81
2023/03/15 05:55:02;;;;;;;7.33;3.73;;;1.20;99.90;;;;;;5053901;28;20197;-82
2023/03/15 05:57:28;;;;;;;6.63;3.43;;;1.30;99.90;;;;;;5053834;28;20180;-80
2023/03/15 05:59:53;;;;;;;9.50;4.13;;;1.10;99.90;;;;;;5054182;28;20208;-81
2023/03/15 06:02:20;;;;;;;8.33;4.43;;;1.10;99.90;;;;;;5057223;28;20223;-84
2023/03/15 06:04:46;;;;;;;7.13;4.00;;;1.10;99.90;;;;;;5075457;28;20177;-83
2023/03/15 06:07:11;;;;;;;10.33;4.23;;;1.10;99.90;;;;;;5057261;28;20327;-82
2023/03/15 06:09:37;;;;;;;7.77;3.53;;;1.10;99.90;;;;;;5057042;28;20201;-83
2023/03/15 06:12:03;;;;;;;7.63;3.63;;;1.10;99.90;;;;;;5057490;28;20180;-83
2023/03/15 06:14:29;;;;;;;12.37;4.07;;;1.10;99.90;;;;;;5074994;28;20185;-84
2023/03/15 06:16:54;;;;;;;13.37;4.23;;;1.10;99.90;;;;;;5075161;28;20173;-85
2023/03/15 06:19:21;;;;;;;9.83;4.30;;;1.10;99.90;;;;;;5075305;28;20240;-84
2023/03/15 06:21:46;;;;;;;11.17;4.03;;;1.00;99.90;;;;;;5075423;28;20165;-84
2023/03/15 06:24:12;;;;;;;12.60;3.70;;;0.90;99.90;;;;;;5075287;28;20176;-83
2023/03/15 06:26:38;;;;;;;7.17;3.73;;;0.90;99.90;;;;;;5075133;28;20262;-83
2023/03/15 06:29:04;;;;;;;9.10;3.57;;;0.90;99.90;;;;;;5056892;28;20204;-83
2023/03/15 06:31:30;;;;;;;9.23;4.10;;;0.90;99.90;;;;;;5056737;28;20177;-85
2023/03/15 06:33:55;;;;;;;6.67;3.80;;;1.00;99.90;;;;;;5075213;28;20635;-83
2023/03/15 06:36:23;;;;;;;9.07;4.47;;;1.10;99.90;;;;;;5058657;28;20204;-81
2023/03/15 06:38:49;;;;;;;8.00;4.20;;;1.10;99.90;;;;;;5076433;28;20184;-84
2023/03/15 06:41:14;;;;;;;7.80;4.03;;;1.10;99.90;;;;;;5074629;28;20248;-84
2023/03/15 06:43:41;;;;;;;8.67;3.93;;;1.20;99.90;;;;;;5057519;28;20172;-84
2023/03/15 06:46:06;;;;;;;9.83;4.33;;;1.10;99.90;;;;;;5075101;28;20184;-85
2023/03/15 06:48:32;;;;;;;9.67;4.27;;;1.10;99.90;;;;;;5057618;28;20173;-83
2023/03/15 06:50:58;;;;;;;6.70;4.00;;;1.10;99.90;;;;;;5074800;28;20173;-82
2023/03/15 06:53:24;;;;;;;8.90;4.17;;;1.10;99.90;;;;;;5074899;28;20172;-82
2023/03/15 06:55:50;;;;;;;8.47;4.00;;;1.00;99.90;;;;;;5057950;28;20299;-83
2023/03/15 06:58:16;;;;;;;6.57;3.80;;;1.00;99.90;;;;;;5056933;28;20169;-83
2023/03/15 07:00:43;;;;;;;7.50;3.87;;;1.10;99.90;;;;;;5045902;28;20239;-85
2023/03/15 07:03:08;;;;;;;9.20;4.00;;;1.00;99.90;;;;;;5038085;28;20257;-82
2023/03/15 07:05:34;;;;;;;9.43;3.87;;;1.00;99.90;;;;;;5056412;28;20205;-82
2023/03/15 07:07:59;;;;;;;7.63;3.67;;;1.00;99.90;;;;;;5055907;28;20228;-83
2023/03/15 07:10:25;;;;;;;10.77;4.07;;;1.00;99.90;;;;;;5038941;28;20190;-84
2023/03/15 07:12:51;;;;;;;8.97;4.13;;;1.10;99.90;;;;;;5037049;28;20231;-83
2023/03/15 07:15:16;;;;;;;8.20;3.80;;;1.10;99.90;;;;;;5054955;28;20280;-83
2023/03/15 07:17:42;;;;;;;8.07;3.80;;;1.10;99.90;;;;;;5038260;28;20550;-84
2023/03/15 07:20:08;;;;;;;5.90;3.67;;;1.10;99.90;;;;;;5038048;28;20202;-84
2023/03/15 07:22:34;;;;;;;8.40;4.23;;;1.10;99.90;;;;;;5056670;28;20185;-85
2023/03/15 07:24:59;;;;;;;6.97;3.77;;;1.00;99.90;;;;;;5039558;28;20180;-84
2023/03/15 07:27:25;;;;;;;8.03;3.93;;;1.10;99.90;;;;;;5056534;28;20601;-83
2023/03/15 07:29:50;;;;;;;6.47;4.03;;;1.10;99.90;;;;;;5038366;28;20200;-84
2023/03/15 07:32:16;;;;;;;5.43;3.50;;;1.20;99.90;;;;;;5061375;28;20590;-85
2023/03/15 07:34:42;;;;;;;7.40;3.90;;;1.20;99.90;;;;;;5068121;28;20192;-84
2023/03/15 07:37:08;;;;;;;5.27;3.23;;;1.20;99.90;;;;;;5076553;28;20173;-84
2023/03/15 07:39:33;;;;;;;5.83;3.70;;;1.20;99.90;;;;;;5059003;28;20197;-85
2023/03/15 07:41:59;;;;;;;6.87;4.00;;;1.20;99.90;;;;;;5058435;28;20173;-84
2023/03/15 07:44:25;;;;;;;7.83;4.17;;;1.20;99.90;;;;;;5058819;28;20244;-82
2023/03/15 07:46:51;;;;;;;5.30;3.53;;;1.20;99.90;;;;;;5075966;28;20173;-84
2023/03/15 07:49:16;;;;;;;4.20;3.10;;;1.40;99.90;;;;;;5076541;28;20185;-84
2023/03/15 07:51:42;;;;;;;6.47;3.30;;;1.50;99.90;;;;;;5075040;28;20188;-85
2023/03/15 07:54:08;;;;;;;5.33;3.10;;;1.50;99.90;;;;;;5053052;28;20170;-80
2023/03/15 07:56:34;;;;;;;5.20;2.63;;;1.50;99.90;;;;;;5059140;28;20292;-85
2023/03/15 07:59:00;;;;;;;4.77;3.07;;;1.50;99.90;;;;;;5058617;28;20220;-83
2023/03/15 08:01:25;;;;;;;3.67;2.67;;;1.50;99.90;;;;;;5058546;28;20169;-83
2023/03/15 08:03:51;;;;;;;4.67;2.70;;;1.60;99.90;;;;;;5077664;28;20202;-82
2023/03/15 08:06:16;;;;;;;4.40;2.70;;;1.60;99.90;;;;;;5058282;28;20173;-81
2023/03/15 08:08:42;;;;;;;3.57;2.67;;;1.60;99.90;;;;;;5052986;28;20178;-83
2023/03/15 08:11:07;;;;;;;3.73;2.70;;;1.60;99.90;;;;;;5060731;28;20184;-82
2023/03/15 08:13:33;;;;;;;3.93;2.73;;;1.70;99.90;;;;;;5047931;28;20257;-83
2023/03/15 08:15:59;;;;;;;5.13;3.00;;;1.90;99.90;;;;;;5056666;28;20350;-85
2023/03/15 08:18:27;;;;;;;3.93;2.83;;;2.00;99.90;;;;;;5075325;28;20169;-83
2023/03/15 08:20:53;;;;;;;4.03;2.60;;;2.20;99.90;;;;;;5055745;28;20220;-83
2023/03/15 08:23:19;;;;;;;4.47;2.80;;;2.30;99.90;;;;;;5054217;28;20174;-84
2023/03/15 08:25:44;;;;;;;3.67;2.20;;;2.30;99.90;;;;;;5042183;28;20179;-84
2023/03/15 08:28:10;;;;;;;4.63;2.80;;;2.30;99.90;;;;;;5059608;28;20651;-84
2023/03/15 08:30:36;;;;;;;3.30;2.53;;;2.50;99.90;;;;;;5077638;28;20203;-83
2023/03/15 08:33:02;;;;;;;3.20;2.40;;;2.80;99.90;;;;;;5072996;28;20178;-85
2023/03/15 08:35:29;;;;;;;3.67;2.83;;;3.10;99.90;;;;;;5054452;28;20245;-83
2023/03/15 08:37:55;;;;;;;5.67;4.23;;;3.40;99.90;;;;;;5071424;28;20180;-82
2023/03/15 08:40:23;;;;;;;3.00;2.50;;;3.30;99.90;;;;;;5072856;28;20183;-83
2023/03/15 08:42:50;;;;;;;3.33;2.60;;;3.30;99.90;;;;;;5071678;28;20171;-83
2023/03/15 08:45:15;;;;;;;2.77;2.20;;;3.30;99.90;;;;;;5071959;28;20173;-83
2023/03/15 08:47:42;;;;;;;2.90;2.20;;;3.40;99.90;;;;;;5071771;28;20178;-81
2023/03/15 08:50:10;;;;;;;3.23;2.43;;;3.20;99.90;;;;;;5072579;28;20195;-83
2023/03/15 08:52:36;;;;;;;2.50;2.30;;;3.00;99.90;;;;;;5072674;28;20388;-83
2023/03/15 08:55:03;;;;;;;2.97;2.13;;;3.00;99.90;;;;;;5057669;28;20274;-82
2023/03/15 08:57:31;;;;;;;2.90;2.60;;;3.20;99.90;;;;;;5047334;28;20182;-84
2023/03/15 08:59:58;;;;;;;3.70;3.00;;;3.20;99.90;;;;;;5064832;28;20187;-81
2023/03/15 09:02:24;;;;;;;3.50;2.80;;;3.30;99.90;;;;;;5073388;28;20172;-82
2023/03/15 09:04:50;;;;;;;3.17;2.87;;;3.30;99.90;;;;;;5055016;28;20190;-82
2023/03/15 09:07:15;;;;;;;3.60;2.30;;;3.20;99.90;;;;;;5073681;28;20174;-82
2023/03/15 09:09:41;;;;;;;3.57;2.57;;;3.20;99.90;;;;;;5068934;28;20534;-82
2023/03/15 09:12:07;;;;;;;3.47;2.90;;;3.30;99.90;;;;;;5068652;28;20209;-83
2023/03/15 09:14:33;;;;;;;3.20;2.60;;;3.40;99.90;;;;;;5073144;28;20226;-82
2023/03/15 09:16:58;;;;;;;2.70;2.50;;;3.60;99.90;;;;;;5073155;28;20263;-82
2023/03/15 09:19:24;;;;;;;3.83;2.93;;;3.50;99.90;;;;;;5072686;28;20211;-82
2023/03/15 09:21:50;;;;;;;4.23;3.83;;;3.60;99.90;;;;;;5054610;28;20228;-82
2023/03/15 09:24:15;;;;;;;3.77;2.90;;;3.60;99.90;;;;;;5072931;28;20194;-82
2023/03/15 09:26:41;;;;;;;3.80;2.97;;;3.50;99.90;;;;;;5072448;28;20252;-82
2023/03/15 09:29:08;;;;;;;3.23;2.93;;;3.40;99.90;;;;;;5054250;28;20202;-83
2023/03/15 09:31:34;;;;;;;3.10;2.53;;;3.30;99.90;;;;;;5055172;28;20183;-82
2023/03/15 09:34:00;;;;;;;3.10;2.40;;;3.30;99.90;;;;;;5054766;28;20179;-82
2023/03/15 09:36:25;;;;;;;3.00;2.50;;;3.40;99.90;;;;;;5057649;28;20340;-82
2023/03/15 09:38:51;;;;;;;3.30;2.60;;;3.50;99.90;;;;;;5058179;28;20195;-82
2023/03/15 09:41:45;;;;;;;3.50;2.73;;;3.60;99.90;;;;;;5058431;28;20266;-84
2023/03/15 09:44:22;;;;;;;2.10;1.70;;;3.70;99.90;;;;;;5078129;28;20176;-84
2023/03/15 09:46:53;;;;;;;1.73;1.57;;;3.80;99.90;;;;;;5059034;28;20180;-84
2023/03/15 09:49:40;;;;;;;2.57;1.63;;;3.50;99.90;;;;;;5076652;28;20203;-83
2023/03/15 09:52:33;;;;;;;1.70;1.60;;;3.40;99.90;;;;;;5077107;28;20179;-83
2023/03/15 09:55:03;;;;;;;1.90;1.70;;;3.30;99.90;;;;;;5075468;28;20207;-87
2023/03/15 09:57:41;;;;;;;2.67;2.03;;;3.20;99.90;;;;;;5066816;28;20234;-87
2023/03/15 10:00:13;;;;;;;8.63;5.90;;;3.10;99.90;;;;;;5076174;28;20231;-82
2023/03/15 10:02:44;;;;;;;4.73;3.20;;;3.20;99.90;;;;;;5077803;28;20193;-83
2023/03/15 10:05:19;;;;;;;2.43;2.23;;;3.20;99.90;;;;;;5060289;28;20205;-83
2023/03/15 10:07:45;;;;;;;6.73;5.50;;;3.20;99.90;;;;;;5078598;28;20230;-81
2023/03/15 10:10:23;;;;;;;3.90;3.47;;;3.20;99.90;;;;;;5077108;28;20681;-84
2023/03/15 10:13:11;;;;;;;2.30;2.10;;;3.30;99.90;;;;;;5060171;28;20515;-83
2023/03/15 10:15:42;;;;;;;2.90;2.60;;;3.30;99.90;;;;;;5078483;28;20222;-83
2023/03/15 10:18:33;;;;;;;2.20;2.00;;;3.40;99.90;;;;;;5059369;28;20600;-83
2023/03/15 10:21:17;;;;;;;2.50;2.00;;;3.50;99.90;;;;;;5058367;28;20254;-80
2023/03/15 10:23:54;;;;;;;2.43;2.03;;;3.40;99.90;;;;;;5078907;28;20172;-84
2023/03/15 10:26:26;;;;;;;2.33;2.13;;;3.40;99.90;;;;;;5077497;28;20187;-84
2023/03/15 10:28:52;;;;;;;3.70;2.20;;;3.70;99.90;;;;;;5057290;28;20295;-84
2023/03/15 10:31:24;;;;;;;2.40;2.13;;;3.90;99.90;;;;;;5075396;28;20218;-83
2023/03/15 10:33:50;;;;;;;2.60;2.17;;;4.10;99.90;;;;;;5058350;28;20182;-83
2023/03/15 10:36:18;;;;;;;2.83;2.57;;;4.20;99.90;;;;;;5058422;28;20208;-84
2023/03/15 10:38:45;;;;;;;3.73;2.93;;;4.40;99.90;;;;;;5075241;28;20549;-81
2023/03/15 10:41:13;;;;;;;2.83;2.10;;;4.70;99.90;;;;;;5076096;28;20170;-80
2023/03/15 10:43:40;;;;;;;3.90;2.60;;;4.70;99.90;;;;;;5058669;28;20168;-83
2023/03/15 10:46:11;;;;;;;2.63;2.10;;;4.70;99.90;;;;;;5075130;28;20174;-82
2023/03/15 10:48:40;;;;;;;3.07;2.00;;;4.70;99.90;;;;;;5056545;28;20387;-82
2023/03/15 10:51:19;;;;;;;2.10;1.90;;;4.70;99.90;;;;;;5074767;28;20173;-83
2023/03/15 10:54:05;;;;;;;1.80;1.70;;;4.70;99.90;;;;;;5075194;28;20223;-83
2023/03/15 10:56:35;;;;;;;2.43;2.20;;;4.60;99.90;;;;;;5075548;28;20241;-84
2023/03/15 10:59:00;;;;;;;2.13;1.87;;;4.40;99.90;;;;;;5057226;28;20279;-85
2023/03/15 11:01:27;;;;;;;1.90;1.70;;;4.70;99.90;;;;;;5074419;28;20253;-83
2023/03/15 11:04:14;;;;;;;2.23;1.97;;;4.60;99.90;;;;;;5074982;28;20539;-82
2023/03/15 11:06:41;;;;;;;2.20;1.97;;;4.70;99.90;;;;;;5056649;28;20211;-84
2023/03/15 11:09:09;;;;;;;1.73;1.63;;;4.80;99.90;;;;;;5057658;28;20215;-83
2023/03/15 11:11:57;;;;;;;2.47;2.10;;;4.60;99.90;;;;;;5067743;28;20329;-82
2023/03/15 11:14:24;;;;;;;2.30;2.10;;;4.60;99.90;;;;;;5053360;28;20173;-82
2023/03/15 11:16:55;;;;;;;2.13;1.90;;;4.60;99.90;;;;;;5036240;28;20669;-82
2023/03/15 11:19:26;;;;;;;2.20;2.00;;;4.80;99.90;;;;;;5063002;22;20267;-88
2023/03/15 11:21:52;;;;;;;2.00;1.80;;;5.00;99.90;;;;;;5072816;28;20606;-86
2023/03/15 11:24:31;;;;;;;1.83;1.73;;;5.10;99.90;;;;;;5055576;28;20265;-84
2023/03/15 11:27:02;;;;;;;2.17;1.63;;;5.10;99.90;;;;;;5055496;28;20183;-86
2023/03/15 11:29:34;;;;;;;2.00;1.70;;;4.90;99.90;;;;;;5055329;28;20280;-86
2023/03/15 11:32:09;;;;;;;1.83;1.73;;;4.80;99.90;;;;;;5073123;28;20176;-86
2023/03/15 11:34:41;;;;;;;2.07;1.73;;;4.60;99.90;;;;;;5055311;28;20539;-85
2023/03/15 11:37:19;;;;;;;2.00;1.70;;;4.60;99.90;;;;;;5055453;28;20172;-85
2023/03/15 11:40:15;;;;;;;1.43;1.30;;;4.50;99.90;;;;;;5055173;28;20185;-85
2023/03/15 11:42:53;;;;;;;1.53;1.43;;;4.50;99.90;;;;;;5055565;28;20165;-87
2023/03/15 11:45:40;;;;;;;1.40;1.30;;;5.00;99.90;;;;;;5051991;28;20658;-86
2023/03/15 11:48:29;;;;;;;2.13;1.43;;;5.50;99.90;;;;;;5043687;28;20177;-85
2023/03/15 11:50:57;;;;;;;1.53;1.43;;;5.70;99.90;;;;;;5050609;28;20206;-85
2023/03/15 11:53:28;;;;;;;1.97;1.40;;;6.30;99.90;;;;;;5038937;28;20182;-88
2023/03/15 11:55:54;;;;;;;2.23;1.70;;;6.30;99.90;;;;;;5056542;28;20216;-88
2023/03/15 11:58:33;;;;;;;3.17;2.80;;;5.70;99.90;;;;;;5054625;28;20549;-87
2023/03/15 12:01:04;;;;;;;2.10;1.90;;;5.40;99.90;;;;;;5068112;28;20200;-88
2023/03/15 12:03:42;;;;;;;2.40;1.90;;;5.30;99.90;;;;;;5072737;28;20170;-87
2023/03/15 12:06:17;;;;;;;12.43;6.23;;;5.20;99.90;;;;;;5054950;28;20187;-84
2023/03/15 12:08:47;;;;;;;6.60;4.33;;;5.10;99.90;;;;;;5054580;28;20169;-82
2023/03/15 12:11:21;;;;;;;7.73;4.70;;;5.60;99.90;;;;;;5046538;28;20322;-82
2023/03/15 12:13:59;;;;;;;3.53;2.67;;;6.10;99.90;;;;;;5072684;28;20175;-84
2023/03/15 12:16:46;;;;;;;3.07;2.30;;;6.50;99.90;;;;;;5072481;28;20201;-84
2023/03/15 12:19:18;;;;;;;1.10;1.00;;;6.90;99.90;;;;;;5053919;28;20194;-83
2023/03/15 12:21:53;;;;;;;1.90;1.00;;;5.20;99.90;;;;;;5059203;28;20178;-87
2023/03/15 12:24:25;;;;;;;2.87;1.60;;;4.20;99.90;;;;;;5034602;28;20177;-87
2023/03/15 12:27:13;;;;;;;1.47;1.33;;;3.80;99.90;;;;;;5052365;28;20249;-86
2023/03/15 12:29:40;;;;;;;1.10;1.00;;;3.80;99.90;;;;;;5052134;28;20233;-89
2023/03/15 12:32:12;;;;;;;1.83;1.30;;;3.70;99.90;;;;;;5052389;28;20181;-87
2023/03/15 12:34:57;;;;;;;1.73;1.17;;;3.50;99.90;;;;;;5034445;28;20197;-87
2023/03/15 12:37:37;;;;;;;1.40;1.10;;;3.40;99.90;;;;;;5069819;28;20207;-89
2023/03/15 12:40:15;;;;;;;1.10;1.00;;;3.20;99.90;;;;;;5063420;28;20235;-88
2023/03/15 12:42:40;;;;;;;1.83;1.10;;;3.30;99.90;;;;;;5054418;28;20171;-85
2023/03/15 12:45:18;;;;;;;1.27;0.97;;;3.50;99.90;;;;;;5054115;28;20569;-88
2023/03/15 12:47:43;;;;;;;3.23;1.27;;;3.60;99.90;;;;;;5054252;28;20180;-85
2023/03/15 12:50:49;;;;;;;2.30;1.30;;;3.70;99.90;;;;;;5071929;28;20219;-91
2023/03/15 12:53:37;;;;;;;1.47;1.37;;;4.50;99.90;;;;;;5054220;28;20179;-85
2023/03/15 12:56:18;;;;;;;2.73;1.60;;;5.60;99.90;;;;;;5054290;28;20227;-83
2023/03/15 12:58:47;;;;;;;1.43;1.33;;;5.90;99.90;;;;;;5054314;28;20172;-82
2023/03/15 13:01:15;;;;;;;2.50;1.63;;;6.30;99.90;;;;;;5071766;28;20185;-82
2023/03/15 13:03:42;;;;;;;1.60;1.50;;;6.70;99.90;;;;;;5054594;28;20207;-84
2023/03/15 13:06:15;;;;;;;2.07;1.47;;;7.20;99.90;;;;;;5054075;28;20184;-85
2023/03/15 13:09:10;;;;;;;2.00;1.80;;;7.30;99.90;;;;;;5064470;28;20179;-85